sensor_id;sensor_type;location;lat;lon;timestamp;P1;durP1;ratioP1;P2;durP2;ratioP2
37851;SDS011;23691;52.486;4.650;2023-07-13T00:00:55;21.55;;;5.43;;
37851;SDS011;23691;52.486;4.650;2023-07-13T00:03:21;25.50;;;4.38;;
37851;SDS011;23691;52.486;4.650;2023-07-13T00:05:47;24.30;;;5.28;;
37851;SDS011;23691;52.486;4.650;2023-07-13T00:08:22;21.85;;;4.25;;
37851;SDS011;23691;52.486;4.650;2023-07-13T00:10:48;21.65;;;5.30;;
37851;SDS011;23691;52.486;4.650;2023-07-13T00:13:19;23.15;;;4.85;;
37851;SDS011;23691;52.486;4.650;2023-07-13T00:15:45;25.40;;;5.63;;
37851;SDS011;23691;52.486;4.650;2023-07-13T00:18:14;27.50;;;5.78;;
37851;SDS011;23691;52.486;4.650;2023-07-13T00:23:08;26.13;;;6.78;;
37851;SDS011;23691;52.486;4.650;2023-07-13T00:25:34;24.98;;;8.60;;
37851;SDS011;23691;52.486;4.650;2023-07-13T00:28:00;21.77;;;7.90;;
37851;SDS011;23691;52.486;4.650;2023-07-13T00:30:25;13.77;;;3.65;;
37851;SDS011;23691;52.486;4.650;2023-07-13T00:32:51;10.70;;;2.60;;
37851;SDS011;23691;52.486;4.650;2023-07-13T00:35:16;11.23;;;2.38;;
37851;SDS011;23691;52.486;4.650;2023-07-13T00:37:42;11.48;;;2.03;;
37851;SDS011;23691;52.486;4.650;2023-07-13T00:40:09;10.45;;;1.77;;
37851;SDS011;23691;52.486;4.650;2023-07-13T00:42:36;7.45;;;1.73;;
37851;SDS011;23691;52.486;4.650;2023-07-13T00:46:02;7.72;;;1.35;;
37851;SDS011;23691;52.486;4.650;2023-07-13T00:47:50;9.30;;;2.00;;
37851;SDS011;23691;52.486;4.650;2023-07-13T00:50:16;10.60;;;1.80;;
37851;SDS011;23691;52.486;4.650;2023-07-13T00:52:44;10.95;;;2.00;;
37851;SDS011;23691;52.486;4.650;2023-07-13T00:55:12;9.68;;;2.15;;
37851;SDS011;23691;52.486;4.650;2023-07-13T00:57:39;8.60;;;1.60;;
37851;SDS011;23691;52.486;4.650;2023-07-13T01:00:06;8.73;;;1.57;;
37851;SDS011;23691;52.486;4.650;2023-07-13T01:02:35;8.80;;;1.65;;
37851;SDS011;23691;52.486;4.650;2023-07-13T01:05:12;9.45;;;1.83;;
37851;SDS011;23691;52.486;4.650;2023-07-13T01:07:43;8.52;;;1.75;;
37851;SDS011;23691;52.486;4.650;2023-07-13T01:10:10;7.37;;;1.53;;
37851;SDS011;23691;52.486;4.650;2023-07-13T01:12:36;10.27;;;2.00;;
37851;SDS011;23691;52.486;4.650;2023-07-13T01:15:02;8.57;;;1.98;;
37851;SDS011;23691;52.486;4.650;2023-07-13T01:17:29;10.80;;;2.27;;
37851;SDS011;23691;52.486;4.650;2023-07-13T01:19:58;8.70;;;1.75;;
37851;SDS011;23691;52.486;4.650;2023-07-13T01:22:24;9.95;;;1.98;;
37851;SDS011;23691;52.486;4.650;2023-07-13T01:24:51;8.02;;;1.90;;
37851;SDS011;23691;52.486;4.650;2023-07-13T01:27:21;12.90;;;2.10;;
37851;SDS011;23691;52.486;4.650;2023-07-13T01:29:53;10.00;;;2.03;;
37851;SDS011;23691;52.486;4.650;2023-07-13T01:32:29;14.52;;;2.33;;
37851;SDS011;23691;52.486;4.650;2023-07-13T01:34:56;11.63;;;1.77;;
37851;SDS011;23691;52.486;4.650;2023-07-13T01:37:25;12.05;;;2.33;;
37851;SDS011;23691;52.486;4.650;2023-07-13T01:39:52;9.05;;;1.95;;
37851;SDS011;23691;52.486;4.650;2023-07-13T01:42:18;9.77;;;2.17;;
37851;SDS011;23691;52.486;4.650;2023-07-13T01:44:44;12.43;;;1.90;;
37851;SDS011;23691;52.486;4.650;2023-07-13T01:47:09;9.48;;;1.88;;
37851;SDS011;23691;52.486;4.650;2023-07-13T01:49:35;11.50;;;2.15;;
37851;SDS011;23691;52.486;4.650;2023-07-13T01:52:02;11.60;;;1.80;;
37851;SDS011;23691;52.486;4.650;2023-07-13T01:54:28;10.40;;;2.25;;
37851;SDS011;23691;52.486;4.650;2023-07-13T01:56:53;10.18;;;2.13;;
37851;SDS011;23691;52.486;4.650;2023-07-13T01:59:19;11.60;;;2.40;;
37851;SDS011;23691;52.486;4.650;2023-07-13T02:01:47;10.18;;;2.00;;
37851;SDS011;23691;52.486;4.650;2023-07-13T02:04:13;15.85;;;2.55;;
37851;SDS011;23691;52.486;4.650;2023-07-13T02:06:45;9.52;;;1.92;;
37851;SDS011;23691;52.486;4.650;2023-07-13T02:09:11;12.37;;;2.10;;
37851;SDS011;23691;52.486;4.650;2023-07-13T02:11:39;12.27;;;2.55;;
37851;SDS011;23691;52.486;4.650;2023-07-13T02:14:04;9.20;;;2.17;;
37851;SDS011;23691;52.486;4.650;2023-07-13T02:16:30;10.48;;;1.92;;
37851;SDS011;23691;52.486;4.650;2023-07-13T02:18:56;10.77;;;2.42;;
37851;SDS011;23691;52.486;4.650;2023-07-13T02:21:30;14.80;;;2.28;;
37851;SDS011;23691;52.486;4.650;2023-07-13T02:23:55;9.15;;;1.90;;
37851;SDS011;23691;52.486;4.650;2023-07-13T02:26:22;11.47;;;1.87;;
37851;SDS011;23691;52.486;4.650;2023-07-13T02:28:54;7.78;;;1.90;;
37851;SDS011;23691;52.486;4.650;2023-07-13T02:31:20;15.60;;;2.50;;
37851;SDS011;23691;52.486;4.650;2023-07-13T02:33:46;14.25;;;2.55;;
37851;SDS011;23691;52.486;4.650;2023-07-13T02:36:14;12.85;;;2.65;;
37851;SDS011;23691;52.486;4.650;2023-07-13T02:38:41;10.13;;;2.60;;
37851;SDS011;23691;52.486;4.650;2023-07-13T02:41:07;12.18;;;2.58;;
37851;SDS011;23691;52.486;4.650;2023-07-13T02:43:35;11.82;;;2.20;;
37851;SDS011;23691;52.486;4.650;2023-07-13T02:46:02;11.38;;;2.42;;
37851;SDS011;23691;52.486;4.650;2023-07-13T02:48:32;13.18;;;2.53;;
37851;SDS011;23691;52.486;4.650;2023-07-13T02:51:15;10.70;;;2.20;;
37851;SDS011;23691;52.486;4.650;2023-07-13T02:53:41;13.80;;;2.30;;
37851;SDS011;23691;52.486;4.650;2023-07-13T02:56:06;11.85;;;2.33;;
37851;SDS011;23691;52.486;4.650;2023-07-13T02:58:35;9.82;;;2.10;;
37851;SDS011;23691;52.486;4.650;2023-07-13T03:01:07;9.50;;;2.08;;
37851;SDS011;23691;52.486;4.650;2023-07-13T03:03:47;11.10;;;2.13;;
37851;SDS011;23691;52.486;4.650;2023-07-13T03:06:14;9.40;;;2.20;;
37851;SDS011;23691;52.486;4.650;2023-07-13T03:08:40;11.32;;;2.60;;
37851;SDS011;23691;52.486;4.650;2023-07-13T03:11:11;10.80;;;2.70;;
37851;SDS011;23691;52.486;4.650;2023-07-13T03:13:41;10.95;;;2.22;;
37851;SDS011;23691;52.486;4.650;2023-07-13T03:16:08;10.90;;;2.63;;
37851;SDS011;23691;52.486;4.650;2023-07-13T03:18:37;10.27;;;2.40;;
37851;SDS011;23691;52.486;4.650;2023-07-13T03:21:12;12.00;;;2.30;;
37851;SDS011;23691;52.486;4.650;2023-07-13T03:23:40;14.48;;;2.63;;
37851;SDS011;23691;52.486;4.650;2023-07-13T03:26:14;10.57;;;2.13;;
37851;SDS011;23691;52.486;4.650;2023-07-13T03:28:42;13.32;;;2.25;;
37851;SDS011;23691;52.486;4.650;2023-07-13T03:31:11;13.68;;;2.50;;
37851;SDS011;23691;52.486;4.650;2023-07-13T03:33:52;13.48;;;2.72;;
37851;SDS011;23691;52.486;4.650;2023-07-13T03:36:19;12.50;;;2.67;;
37851;SDS011;23691;52.486;4.650;2023-07-13T03:38:47;17.52;;;3.13;;
37851;SDS011;23691;52.486;4.650;2023-07-13T03:41:15;14.60;;;3.28;;
37851;SDS011;23691;52.486;4.650;2023-07-13T03:43:41;15.27;;;3.08;;
37851;SDS011;23691;52.486;4.650;2023-07-13T03:46:11;11.57;;;2.70;;
37851;SDS011;23691;52.486;4.650;2023-07-13T03:48:36;10.73;;;2.60;;
37851;SDS011;23691;52.486;4.650;2023-07-13T03:51:02;8.73;;;2.25;;
37851;SDS011;23691;52.486;4.650;2023-07-13T03:53:30;13.35;;;2.70;;
37851;SDS011;23691;52.486;4.650;2023-07-13T03:55:56;14.40;;;2.63;;
37851;SDS011;23691;52.486;4.650;2023-07-13T03:58:25;15.00;;;2.60;;
37851;SDS011;23691;52.486;4.650;2023-07-13T04:00:56;13.95;;;2.45;;
37851;SDS011;23691;52.486;4.650;2023-07-13T04:03:24;15.18;;;2.20;;
37851;SDS011;23691;52.486;4.650;2023-07-13T04:05:53;13.63;;;2.33;;
37851;SDS011;23691;52.486;4.650;2023-07-13T04:08:23;13.75;;;2.80;;
37851;SDS011;23691;52.486;4.650;2023-07-13T04:11:00;16.98;;;2.95;;
37851;SDS011;23691;52.486;4.650;2023-07-13T04:13:30;13.60;;;3.55;;
37851;SDS011;23691;52.486;4.650;2023-07-13T04:15:58;16.23;;;3.60;;
37851;SDS011;23691;52.486;4.650;2023-07-13T04:20:49;12.25;;;2.65;;
37851;SDS011;23691;52.486;4.650;2023-07-13T04:23:16;11.55;;;2.38;;
37851;SDS011;23691;52.486;4.650;2023-07-13T04:25:46;11.45;;;2.25;;
37851;SDS011;23691;52.486;4.650;2023-07-13T04:28:14;18.50;;;3.15;;
37851;SDS011;23691;52.486;4.650;2023-07-13T04:30:43;13.07;;;2.67;;
37851;SDS011;23691;52.486;4.650;2023-07-13T04:33:09;14.15;;;2.58;;
37851;SDS011;23691;52.486;4.650;2023-07-13T04:35:38;11.93;;;2.35;;
37851;SDS011;23691;52.486;4.650;2023-07-13T04:38:03;13.05;;;2.28;;
37851;SDS011;23691;52.486;4.650;2023-07-13T04:40:29;11.45;;;2.40;;
37851;SDS011;23691;52.486;4.650;2023-07-13T04:42:55;17.13;;;2.65;;
37851;SDS011;23691;52.486;4.650;2023-07-13T04:45:21;15.27;;;2.70;;
37851;SDS011;23691;52.486;4.650;2023-07-13T04:47:54;17.40;;;2.42;;
37851;SDS011;23691;52.486;4.650;2023-07-13T04:50:20;14.50;;;2.60;;
37851;SDS011;23691;52.486;4.650;2023-07-13T04:52:54;11.93;;;2.40;;
37851;SDS011;23691;52.486;4.650;2023-07-13T04:55:20;10.73;;;2.40;;
37851;SDS011;23691;52.486;4.650;2023-07-13T04:57:46;12.93;;;2.45;;
37851;SDS011;23691;52.486;4.650;2023-07-13T05:02:54;11.85;;;1.92;;
37851;SDS011;23691;52.486;4.650;2023-07-13T05:05:20;14.90;;;2.40;;
37851;SDS011;23691;52.486;4.650;2023-07-13T05:07:50;17.02;;;2.30;;
37851;SDS011;23691;52.486;4.650;2023-07-13T05:10:17;12.60;;;2.30;;
37851;SDS011;23691;52.486;4.650;2023-07-13T05:12:43;9.90;;;2.17;;
37851;SDS011;23691;52.486;4.650;2023-07-13T05:15:11;16.17;;;2.90;;
37851;SDS011;23691;52.486;4.650;2023-07-13T05:17:42;12.35;;;2.45;;
37851;SDS011;23691;52.486;4.650;2023-07-13T05:20:08;15.18;;;2.55;;
37851;SDS011;23691;52.486;4.650;2023-07-13T05:22:35;11.18;;;2.53;;
37851;SDS011;23691;52.486;4.650;2023-07-13T05:25:03;11.93;;;2.60;;
37851;SDS011;23691;52.486;4.650;2023-07-13T05:27:30;13.13;;;3.00;;
37851;SDS011;23691;52.486;4.650;2023-07-13T05:30:01;8.98;;;2.30;;
37851;SDS011;23691;52.486;4.650;2023-07-13T05:32:28;11.60;;;2.17;;
37851;SDS011;23691;52.486;4.650;2023-07-13T05:34:57;11.23;;;2.47;;
37851;SDS011;23691;52.486;4.650;2023-07-13T05:37:22;9.68;;;2.10;;
37851;SDS011;23691;52.486;4.650;2023-07-13T05:39:53;12.35;;;2.47;;
37851;SDS011;23691;52.486;4.650;2023-07-13T05:42:18;10.00;;;2.33;;
37851;SDS011;23691;52.486;4.650;2023-07-13T05:44:44;11.80;;;2.50;;
37851;SDS011;23691;52.486;4.650;2023-07-13T05:47:09;11.38;;;2.60;;
37851;SDS011;23691;52.486;4.650;2023-07-13T05:49:39;12.65;;;2.67;;
37851;SDS011;23691;52.486;4.650;2023-07-13T05:52:05;11.85;;;2.33;;
37851;SDS011;23691;52.486;4.650;2023-07-13T05:54:31;9.82;;;2.30;;
37851;SDS011;23691;52.486;4.650;2023-07-13T05:56:56;10.20;;;2.40;;
37851;SDS011;23691;52.486;4.650;2023-07-13T05:59:22;11.48;;;2.40;;
37851;SDS011;23691;52.486;4.650;2023-07-13T06:01:47;10.43;;;2.70;;
37851;SDS011;23691;52.486;4.650;2023-07-13T06:04:13;10.63;;;2.63;;
37851;SDS011;23691;52.486;4.650;2023-07-13T06:06:38;12.30;;;2.10;;
37851;SDS011;23691;52.486;4.650;2023-07-13T06:09:04;14.25;;;2.25;;
37851;SDS011;23691;52.486;4.650;2023-07-13T06:11:29;10.05;;;2.13;;
37851;SDS011;23691;52.486;4.650;2023-07-13T06:13:55;9.02;;;1.83;;
37851;SDS011;23691;52.486;4.650;2023-07-13T06:16:23;11.77;;;1.92;;
37851;SDS011;23691;52.486;4.650;2023-07-13T06:21:17;11.55;;;3.00;;
37851;SDS011;23691;52.486;4.650;2023-07-13T06:23:45;11.75;;;2.70;;
37851;SDS011;23691;52.486;4.650;2023-07-13T06:26:12;9.40;;;2.38;;
37851;SDS011;23691;52.486;4.650;2023-07-13T06:28:38;14.13;;;2.30;;
37851;SDS011;23691;52.486;4.650;2023-07-13T06:31:05;14.73;;;2.10;;
37851;SDS011;23691;52.486;4.650;2023-07-13T06:33:32;12.45;;;2.10;;
37851;SDS011;23691;52.486;4.650;2023-07-13T06:35:58;11.05;;;2.20;;
37851;SDS011;23691;52.486;4.650;2023-07-13T06:38:24;9.70;;;2.35;;
37851;SDS011;23691;52.486;4.650;2023-07-13T06:40:49;10.73;;;2.13;;
37851;SDS011;23691;52.486;4.650;2023-07-13T06:43:15;9.95;;;1.95;;
37851;SDS011;23691;52.486;4.650;2023-07-13T06:45:41;9.70;;;1.85;;
37851;SDS011;23691;52.486;4.650;2023-07-13T06:48:11;11.80;;;2.17;;
37851;SDS011;23691;52.486;4.650;2023-07-13T06:50:36;11.27;;;2.60;;
37851;SDS011;23691;52.486;4.650;2023-07-13T06:53:02;11.13;;;2.45;;
37851;SDS011;23691;52.486;4.650;2023-07-13T06:55:27;11.63;;;2.30;;
37851;SDS011;23691;52.486;4.650;2023-07-13T06:57:53;9.02;;;2.10;;
37851;SDS011;23691;52.486;4.650;2023-07-13T07:00:18;10.38;;;2.00;;
37851;SDS011;23691;52.486;4.650;2023-07-13T07:02:44;10.60;;;1.90;;
37851;SDS011;23691;52.486;4.650;2023-07-13T07:05:09;9.55;;;2.10;;
37851;SDS011;23691;52.486;4.650;2023-07-13T07:07:35;8.20;;;1.95;;
37851;SDS011;23691;52.486;4.650;2023-07-13T07:10:00;9.55;;;1.92;;
37851;SDS011;23691;52.486;4.650;2023-07-13T07:12:26;6.60;;;1.70;;
37851;SDS011;23691;52.486;4.650;2023-07-13T07:14:51;10.73;;;1.90;;
37851;SDS011;23691;52.486;4.650;2023-07-13T07:17:17;10.43;;;2.40;;
37851;SDS011;23691;52.486;4.650;2023-07-13T07:19:42;12.05;;;2.15;;
37851;SDS011;23691;52.486;4.650;2023-07-13T07:22:08;9.68;;;1.98;;
37851;SDS011;23691;52.486;4.650;2023-07-13T07:24:33;12.45;;;2.17;;
37851;SDS011;23691;52.486;4.650;2023-07-13T07:26:58;12.43;;;1.90;;
37851;SDS011;23691;52.486;4.650;2023-07-13T07:29:24;8.95;;;2.05;;
37851;SDS011;23691;52.486;4.650;2023-07-13T07:31:53;8.85;;;2.10;;
37851;SDS011;23691;52.486;4.650;2023-07-13T07:34:19;9.70;;;2.15;;
37851;SDS011;23691;52.486;4.650;2023-07-13T07:36:44;11.52;;;2.28;;
37851;SDS011;23691;52.486;4.650;2023-07-13T07:39:10;16.52;;;2.30;;
37851;SDS011;23691;52.486;4.650;2023-07-13T07:41:36;15.95;;;2.45;;
37851;SDS011;23691;52.486;4.650;2023-07-13T07:44:02;8.25;;;1.70;;
37851;SDS011;23691;52.486;4.650;2023-07-13T07:46:28;10.77;;;2.28;;
37851;SDS011;23691;52.486;4.650;2023-07-13T07:48:55;9.70;;;1.85;;
37851;SDS011;23691;52.486;4.650;2023-07-13T07:51:21;10.53;;;1.80;;
37851;SDS011;23691;52.486;4.650;2023-07-13T07:53:46;9.77;;;1.88;;
37851;SDS011;23691;52.486;4.650;2023-07-13T07:56:12;10.70;;;2.22;;
37851;SDS011;23691;52.486;4.650;2023-07-13T07:58:38;9.30;;;1.92;;
37851;SDS011;23691;52.486;4.650;2023-07-13T08:01:04;10.13;;;2.35;;
37851;SDS011;23691;52.486;4.650;2023-07-13T08:03:31;8.25;;;1.70;;
37851;SDS011;23691;52.486;4.650;2023-07-13T08:05:56;10.95;;;2.30;;
37851;SDS011;23691;52.486;4.650;2023-07-13T08:08:22;10.10;;;2.30;;
37851;SDS011;23691;52.486;4.650;2023-07-13T08:10:47;8.50;;;1.77;;
37851;SDS011;23691;52.486;4.650;2023-07-13T08:13:13;9.48;;;1.90;;
37851;SDS011;23691;52.486;4.650;2023-07-13T08:15:38;11.57;;;2.30;;
37851;SDS011;23691;52.486;4.650;2023-07-13T08:18:03;11.45;;;2.22;;
37851;SDS011;23691;52.486;4.650;2023-07-13T08:20:29;10.55;;;2.10;;
37851;SDS011;23691;52.486;4.650;2023-07-13T08:22:54;10.50;;;2.22;;
37851;SDS011;23691;52.486;4.650;2023-07-13T08:25:20;9.93;;;2.13;;
37851;SDS011;23691;52.486;4.650;2023-07-13T08:27:47;10.05;;;2.20;;
37851;SDS011;23691;52.486;4.650;2023-07-13T08:30:12;8.48;;;1.65;;
37851;SDS011;23691;52.486;4.650;2023-07-13T08:32:37;7.55;;;1.92;;
37851;SDS011;23691;52.486;4.650;2023-07-13T08:35:22;13.27;;;1.77;;
37851;SDS011;23691;52.486;4.650;2023-07-13T08:37:48;10.70;;;1.90;;
37851;SDS011;23691;52.486;4.650;2023-07-13T08:40:13;11.30;;;2.03;;
37851;SDS011;23691;52.486;4.650;2023-07-13T08:42:42;10.50;;;1.58;;
37851;SDS011;23691;52.486;4.650;2023-07-13T08:45:13;10.32;;;1.92;;
37851;SDS011;23691;52.486;4.650;2023-07-13T08:47:57;10.00;;;2.08;;
37851;SDS011;23691;52.486;4.650;2023-07-13T08:50:39;9.60;;;2.20;;
37851;SDS011;23691;52.486;4.650;2023-07-13T08:53:34;7.68;;;1.70;;
37851;SDS011;23691;52.486;4.650;2023-07-13T08:56:03;7.97;;;1.77;;
37851;SDS011;23691;52.486;4.650;2023-07-13T08:58:33;11.10;;;2.05;;
37851;SDS011;23691;52.486;4.650;2023-07-13T09:01:05;15.55;;;2.35;;
37851;SDS011;23691;52.486;4.650;2023-07-13T09:03:40;8.40;;;2.00;;
37851;SDS011;23691;52.486;4.650;2023-07-13T09:06:17;11.40;;;2.13;;
37851;SDS011;23691;52.486;4.650;2023-07-13T09:16:56;9.50;;;2.20;;
37851;SDS011;23691;52.486;4.650;2023-07-13T09:19:24;10.32;;;2.22;;
37851;SDS011;23691;52.486;4.650;2023-07-13T09:21:54;11.20;;;2.30;;
37851;SDS011;23691;52.486;4.650;2023-07-13T09:27:01;13.43;;;2.40;;
37851;SDS011;23691;52.486;4.650;2023-07-13T09:29:35;16.40;;;2.70;;
37851;SDS011;23691;52.486;4.650;2023-07-13T09:32:10;10.50;;;2.30;;
37851;SDS011;23691;52.486;4.650;2023-07-13T09:34:39;10.05;;;1.98;;
37851;SDS011;23691;52.486;4.650;2023-07-13T09:37:05;11.18;;;2.20;;
37851;SDS011;23691;52.486;4.650;2023-07-13T09:39:35;9.55;;;2.00;;
37851;SDS011;23691;52.486;4.650;2023-07-13T09:44:57;8.68;;;1.83;;
37851;SDS011;23691;52.486;4.650;2023-07-13T09:47:27;10.18;;;2.05;;
37851;SDS011;23691;52.486;4.650;2023-07-13T09:50:01;11.95;;;2.60;;
37851;SDS011;23691;52.486;4.650;2023-07-13T09:52:38;8.95;;;2.05;;
37851;SDS011;23691;52.486;4.650;2023-07-13T09:55:25;10.35;;;2.42;;
37851;SDS011;23691;52.486;4.650;2023-07-13T09:58:02;12.48;;;2.30;;
37851;SDS011;23691;52.486;4.650;2023-07-13T10:00:30;11.73;;;2.42;;
37851;SDS011;23691;52.486;4.650;2023-07-13T10:05:40;9.00;;;2.10;;
37851;SDS011;23691;52.486;4.650;2023-07-13T10:11:08;12.50;;;2.42;;
37851;SDS011;23691;52.486;4.650;2023-07-13T10:13:36;11.13;;;2.08;;
37851;SDS011;23691;52.486;4.650;2023-07-13T10:16:06;9.10;;;1.90;;
37851;SDS011;23691;52.486;4.650;2023-07-13T10:21:32;13.55;;;2.65;;
37851;SDS011;23691;52.486;4.650;2023-07-13T10:24:09;10.45;;;2.20;;
37851;SDS011;23691;52.486;4.650;2023-07-13T10:26:41;10.43;;;2.38;;
37851;SDS011;23691;52.486;4.650;2023-07-13T10:29:14;9.38;;;2.10;;
37851;SDS011;23691;52.486;4.650;2023-07-13T10:31:44;12.32;;;2.08;;
37851;SDS011;23691;52.486;4.650;2023-07-13T10:34:11;13.63;;;2.33;;
37851;SDS011;23691;52.486;4.650;2023-07-13T10:36:39;14.48;;;2.65;;
37851;SDS011;23691;52.486;4.650;2023-07-13T10:39:14;11.60;;;2.47;;
37851;SDS011;23691;52.486;4.650;2023-07-13T10:42:01;12.70;;;2.40;;
37851;SDS011;23691;52.486;4.650;2023-07-13T10:44:32;10.77;;;2.50;;
37851;SDS011;23691;52.486;4.650;2023-07-13T10:46:59;10.93;;;2.45;;
37851;SDS011;23691;52.486;4.650;2023-07-13T10:49:27;10.55;;;2.28;;
37851;SDS011;23691;52.486;4.650;2023-07-13T10:51:56;10.63;;;2.25;;
37851;SDS011;23691;52.486;4.650;2023-07-13T10:54:26;13.25;;;2.67;;
37851;SDS011;23691;52.486;4.650;2023-07-13T10:59:48;11.50;;;2.45;;
37851;SDS011;23691;52.486;4.650;2023-07-13T11:02:33;13.35;;;2.30;;
37851;SDS011;23691;52.486;4.650;2023-07-13T11:04:59;10.57;;;2.28;;
37851;SDS011;23691;52.486;4.650;2023-07-13T11:08:03;11.18;;;2.30;;
37851;SDS011;23691;52.486;4.650;2023-07-13T11:10:52;11.18;;;2.10;;
37851;SDS011;23691;52.486;4.650;2023-07-13T11:14:03;11.95;;;2.30;;
37851;SDS011;23691;52.486;4.650;2023-07-13T11:16:13;11.27;;;2.30;;
37851;SDS011;23691;52.486;4.650;2023-07-13T11:18:49;10.98;;;2.17;;
37851;SDS011;23691;52.486;4.650;2023-07-13T11:21:17;7.82;;;1.83;;
37851;SDS011;23691;52.486;4.650;2023-07-13T11:23:51;9.65;;;1.98;;
37851;SDS011;23691;52.486;4.650;2023-07-13T11:26:40;10.23;;;1.95;;
37851;SDS011;23691;52.486;4.650;2023-07-13T11:29:08;18.48;;;2.70;;
37851;SDS011;23691;52.486;4.650;2023-07-13T11:31:53;12.40;;;2.08;;
37851;SDS011;23691;52.486;4.650;2023-07-13T11:34:26;8.77;;;2.25;;
37851;SDS011;23691;52.486;4.650;2023-07-13T11:36:56;10.10;;;2.10;;
37851;SDS011;23691;52.486;4.650;2023-07-13T11:39:31;10.45;;;1.95;;
37851;SDS011;23691;52.486;4.650;2023-07-13T11:42:00;8.43;;;1.90;;
37851;SDS011;23691;52.486;4.650;2023-07-13T11:44:32;9.10;;;1.98;;
37851;SDS011;23691;52.486;4.650;2023-07-13T11:47:10;14.20;;;2.50;;
37851;SDS011;23691;52.486;4.650;2023-07-13T11:49:44;10.65;;;2.42;;
37851;SDS011;23691;52.486;4.650;2023-07-13T11:52:14;9.77;;;2.20;;
37851;SDS011;23691;52.486;4.650;2023-07-13T11:54:54;11.05;;;2.33;;
37851;SDS011;23691;52.486;4.650;2023-07-13T12:00:11;8.35;;;2.15;;
37851;SDS011;23691;52.486;4.650;2023-07-13T12:02:45;11.25;;;2.08;;
37851;SDS011;23691;52.486;4.650;2023-07-13T12:05:15;9.85;;;1.80;;
37851;SDS011;23691;52.486;4.650;2023-07-13T12:07:45;10.52;;;1.90;;
37851;SDS011;23691;52.486;4.650;2023-07-13T12:10:19;7.95;;;1.98;;
37851;SDS011;23691;52.486;4.650;2023-07-13T12:12:54;9.10;;;2.25;;
37851;SDS011;23691;52.486;4.650;2023-07-13T12:15:32;11.48;;;2.53;;
37851;SDS011;23691;52.486;4.650;2023-07-13T12:18:18;10.00;;;2.22;;
37851;SDS011;23691;52.486;4.650;2023-07-13T12:20:45;13.97;;;2.67;;
37851;SDS011;23691;52.486;4.650;2023-07-13T12:25:53;10.75;;;2.65;;
37851;SDS011;23691;52.486;4.650;2023-07-13T12:28:20;9.38;;;2.35;;
37851;SDS011;23691;52.486;4.650;2023-07-13T12:30:48;10.02;;;2.35;;
37851;SDS011;23691;52.486;4.650;2023-07-13T12:33:14;14.05;;;2.28;;
37851;SDS011;23691;52.486;4.650;2023-07-13T12:35:42;10.07;;;2.00;;
37851;SDS011;23691;52.486;4.650;2023-07-13T12:38:12;9.05;;;2.40;;
37851;SDS011;23691;52.486;4.650;2023-07-13T12:40:38;9.43;;;2.00;;
37851;SDS011;23691;52.486;4.650;2023-07-13T12:43:09;9.25;;;2.05;;
37851;SDS011;23691;52.486;4.650;2023-07-13T12:45:37;9.57;;;2.08;;
37851;SDS011;23691;52.486;4.650;2023-07-13T12:48:04;9.90;;;1.67;;
37851;SDS011;23691;52.486;4.650;2023-07-13T12:50:36;11.65;;;2.35;;
37851;SDS011;23691;52.486;4.650;2023-07-13T12:53:09;10.75;;;2.50;;
37851;SDS011;23691;52.486;4.650;2023-07-13T12:55:42;8.05;;;1.90;;
37851;SDS011;23691;52.486;4.650;2023-07-13T12:58:22;9.88;;;2.50;;
37851;SDS011;23691;52.486;4.650;2023-07-13T13:00:50;9.60;;;1.80;;
37851;SDS011;23691;52.486;4.650;2023-07-13T13:05:47;12.13;;;2.75;;
37851;SDS011;23691;52.486;4.650;2023-07-13T13:08:12;12.73;;;2.53;;
37851;SDS011;23691;52.486;4.650;2023-07-13T13:10:38;11.85;;;2.30;;
37851;SDS011;23691;52.486;4.650;2023-07-13T13:13:04;11.82;;;2.40;;
37851;SDS011;23691;52.486;4.650;2023-07-13T13:15:29;8.32;;;2.00;;
37851;SDS011;23691;52.486;4.650;2023-07-13T13:17:55;11.32;;;2.28;;
37851;SDS011;23691;52.486;4.650;2023-07-13T13:20:24;8.23;;;1.90;;
37851;SDS011;23691;52.486;4.650;2023-07-13T13:22:51;11.50;;;2.60;;
37851;SDS011;23691;52.486;4.650;2023-07-13T13:25:19;8.45;;;2.22;;
37851;SDS011;23691;52.486;4.650;2023-07-13T13:27:45;9.80;;;2.00;;
37851;SDS011;23691;52.486;4.650;2023-07-13T13:30:11;10.77;;;2.05;;
37851;SDS011;23691;52.486;4.650;2023-07-13T13:32:39;9.07;;;2.70;;
37851;SDS011;23691;52.486;4.650;2023-07-13T13:35:05;9.95;;;2.53;;
37851;SDS011;23691;52.486;4.650;2023-07-13T13:37:37;10.65;;;2.30;;
37851;SDS011;23691;52.486;4.650;2023-07-13T13:40:04;12.10;;;2.30;;
37851;SDS011;23691;52.486;4.650;2023-07-13T13:42:38;11.85;;;2.20;;
37851;SDS011;23691;52.486;4.650;2023-07-13T13:45:07;7.70;;;1.80;;
37851;SDS011;23691;52.486;4.650;2023-07-13T13:47:34;7.85;;;2.00;;
37851;SDS011;23691;52.486;4.650;2023-07-13T13:50:01;9.30;;;2.00;;
37851;SDS011;23691;52.486;4.650;2023-07-13T13:52:34;8.80;;;2.05;;
37851;SDS011;23691;52.486;4.650;2023-07-13T13:55:00;7.40;;;1.98;;
37851;SDS011;23691;52.486;4.650;2023-07-13T13:57:25;9.05;;;2.58;;
37851;SDS011;23691;52.486;4.650;2023-07-13T13:59:51;8.50;;;2.40;;
37851;SDS011;23691;52.486;4.650;2023-07-13T14:04:55;9.07;;;2.05;;
37851;SDS011;23691;52.486;4.650;2023-07-13T14:07:24;9.35;;;1.75;;
37851;SDS011;23691;52.486;4.650;2023-07-13T14:09:51;11.60;;;1.80;;
37851;SDS011;23691;52.486;4.650;2023-07-13T14:12:17;7.85;;;1.90;;
37851;SDS011;23691;52.486;4.650;2023-07-13T14:14:43;12.27;;;2.25;;
37851;SDS011;23691;52.486;4.650;2023-07-13T14:17:22;9.93;;;2.47;;
37851;SDS011;23691;52.486;4.650;2023-07-13T14:19:53;9.02;;;1.63;;
37851;SDS011;23691;52.486;4.650;2023-07-13T14:22:25;7.13;;;1.90;;
37851;SDS011;23691;52.486;4.650;2023-07-13T14:24:56;8.25;;;1.83;;
37851;SDS011;23691;52.486;4.650;2023-07-13T14:27:25;10.05;;;2.70;;
37851;SDS011;23691;52.486;4.650;2023-07-13T14:29:51;9.27;;;2.20;;
37851;SDS011;23691;52.486;4.650;2023-07-13T14:32:16;8.20;;;1.55;;
37851;SDS011;23691;52.486;4.650;2023-07-13T14:34:42;7.60;;;1.77;;
37851;SDS011;23691;52.486;4.650;2023-07-13T14:37:14;10.20;;;2.00;;
37851;SDS011;23691;52.486;4.650;2023-07-13T14:39:44;8.75;;;1.88;;
37851;SDS011;23691;52.486;4.650;2023-07-13T14:42:13;9.75;;;1.85;;
37851;SDS011;23691;52.486;4.650;2023-07-13T14:44:39;7.85;;;1.90;;
37851;SDS011;23691;52.486;4.650;2023-07-13T14:49:45;6.18;;;1.70;;
37851;SDS011;23691;52.486;4.650;2023-07-13T14:52:17;9.55;;;1.80;;
37851;SDS011;23691;52.486;4.650;2023-07-13T14:54:44;13.85;;;2.00;;
37851;SDS011;23691;52.486;4.650;2023-07-13T14:57:13;8.45;;;1.90;;
37851;SDS011;23691;52.486;4.650;2023-07-13T14:59:42;7.55;;;2.00;;
37851;SDS011;23691;52.486;4.650;2023-07-13T15:02:18;6.47;;;1.63;;
37851;SDS011;23691;52.486;4.650;2023-07-13T15:04:52;9.82;;;1.83;;
37851;SDS011;23691;52.486;4.650;2023-07-13T15:07:19;11.30;;;1.98;;
37851;SDS011;23691;52.486;4.650;2023-07-13T15:09:46;8.32;;;2.05;;
37851;SDS011;23691;52.486;4.650;2023-07-13T15:12:36;9.48;;;2.20;;
37851;SDS011;23691;52.486;4.650;2023-07-13T15:15:01;10.05;;;2.13;;
37851;SDS011;23691;52.486;4.650;2023-07-13T15:17:35;7.78;;;1.80;;
37851;SDS011;23691;52.486;4.650;2023-07-13T15:20:11;8.45;;;1.80;;
37851;SDS011;23691;52.486;4.650;2023-07-13T15:22:48;7.65;;;1.75;;
37851;SDS011;23691;52.486;4.650;2023-07-13T15:25:16;7.90;;;1.98;;
37851;SDS011;23691;52.486;4.650;2023-07-13T15:27:43;7.30;;;1.52;;
37851;SDS011;23691;52.486;4.650;2023-07-13T15:30:17;7.90;;;1.83;;
37851;SDS011;23691;52.486;4.650;2023-07-13T15:32:58;7.47;;;1.80;;
37851;SDS011;23691;52.486;4.650;2023-07-13T15:35:37;8.77;;;1.95;;
37851;SDS011;23691;52.486;4.650;2023-07-13T15:38:13;10.05;;;2.20;;